createdAt,value
2018-04-01T00:00:30.050Z,1.56
2018-04-01T00:06:20.696Z,1.49
2018-04-01T00:12:11.397Z,1.67
2018-04-01T00:18:02.094Z,2.31
2018-04-01T00:23:52.811Z,2.21
2018-04-01T00:29:43.488Z,2.1
2018-04-01T00:35:34.188Z,2.53
2018-04-01T00:41:24.867Z,2.66
2018-04-01T00:47:15.583Z,2.79
2018-04-01T00:53:06.273Z,3.26
2018-04-01T00:58:57.003Z,3.8
2018-04-01T01:04:47.673Z,3.36
2018-04-01T01:10:38.336Z,3.37
2018-04-01T01:16:29.170Z,3.38
2018-04-01T01:22:19.750Z,3.66
2018-04-01T01:28:10.443Z,4.32
2018-04-01T01:34:01.118Z,2.91
2018-04-01T01:39:51.853Z,2.24
2018-04-01T01:45:42.515Z,1.7
2018-04-01T01:51:33.251Z,1.76
2018-04-01T01:57:23.967Z,1.77
2018-04-01T02:03:14.657Z,1.64
2018-04-01T02:09:05.311Z,1.6
2018-04-01T02:14:56.082Z,1.56
2018-04-01T02:20:46.709Z,1.83
2018-04-01T02:26:37.416Z,2.13
2018-04-01T02:32:28.112Z,1.37
2018-04-01T02:38:18.832Z,1.7
2018-04-01T02:44:09.515Z,1.46
2018-04-01T02:50:00.209Z,1.93
2018-04-01T02:55:50.928Z,3.56
2018-04-01T03:01:41.599Z,3.77
2018-04-01T03:07:32.302Z,4.2
2018-04-01T03:13:23.031Z,4.69
2018-04-01T03:19:13.675Z,3.93
2018-04-01T03:25:04.368Z,4.18
2018-04-01T03:30:55.107Z,4.76
2018-04-01T03:36:45.766Z,3.98
2018-04-01T03:42:36.485Z,5.23
2018-04-01T03:48:27.225Z,6.61
2018-04-01T03:54:17.912Z,5.86
2018-04-01T04:00:08.549Z,5.98
2018-04-01T04:05:59.284Z,5.29
2018-04-01T04:11:49.995Z,5.3
2018-04-01T04:17:40.614Z,5.26
2018-04-01T04:23:31.327Z,5.78
2018-04-01T04:29:22.042Z,4.72
2018-04-01T04:35:12.746Z,3.08
2018-04-01T04:41:03.450Z,2.38
2018-04-01T04:46:54.106Z,2.86
2018-04-01T04:52:44.805Z,3.1
2018-04-01T04:58:35.536Z,2.9
2018-04-01T05:04:26.212Z,2.4
2018-04-01T05:10:16.946Z,2.33
2018-04-01T05:16:07.613Z,1.92
2018-04-01T05:21:58.371Z,1.96
2018-04-01T05:27:49.029Z,1.94
2018-04-01T05:33:39.683Z,2.06
2018-04-01T05:39:30.423Z,2.32
2018-04-01T05:45:21.080Z,2.55
2018-04-01T05:51:11.784Z,2.59
2018-04-01T05:57:02.483Z,3.28
2018-04-01T06:02:53.184Z,3.7
2018-04-01T06:08:43.886Z,2.74
2018-04-01T06:14:34.578Z,2.35
2018-04-01T06:20:25.285Z,2.49
2018-04-01T06:26:15.982Z,2.84
2018-04-01T06:32:06.655Z,4.23
2018-04-01T06:37:57.360Z,5.78
2018-04-01T06:43:48.037Z,6.35
2018-04-01T06:49:38.727Z,6.96
2018-04-01T06:55:29.426Z,6.89
2018-04-01T07:01:20.156Z,6.3
2018-04-01T07:07:10.831Z,6.1
2018-04-01T07:13:01.574Z,6.71
2018-04-01T07:18:52.284Z,6.92
2018-04-01T07:24:42.988Z,14.71
2018-04-01T07:30:33.666Z,7.68
2018-04-01T07:36:24.304Z,6.64
2018-04-01T07:42:15.043Z,5.94
2018-04-01T07:48:05.736Z,7.06
2018-04-01T07:53:56.425Z,6.58
2018-04-01T07:59:47.125Z,6.91
2018-04-01T08:05:37.838Z,4.9
2018-04-01T08:11:28.494Z,4.6
2018-04-01T08:17:19.222Z,3.43
2018-04-01T08:23:09.916Z,4.19
2018-04-01T08:29:00.575Z,4.05
2018-04-01T08:34:51.288Z,2.93
2018-04-01T08:40:41.993Z,3.11
2018-04-01T08:46:32.720Z,3.14
2018-04-01T08:52:23.396Z,3.08
2018-04-01T08:58:14.066Z,2.98
2018-04-01T09:04:04.814Z,3.5
2018-04-01T09:09:55.505Z,3.09
2018-04-01T09:15:46.200Z,2.94
2018-04-01T09:21:36.933Z,3.96
2018-04-01T09:27:27.600Z,2.84
2018-04-01T09:33:18.349Z,4.49
2018-04-01T09:39:09.030Z,4.28
2018-04-01T09:44:59.739Z,3.8
2018-04-01T09:50:50.495Z,3.38
2018-04-01T09:56:41.165Z,6.04
2018-04-01T10:02:31.879Z,3.62
2018-04-01T10:08:22.616Z,3.67
2018-04-01T10:14:13.299Z,3.62
2018-04-01T10:20:04.050Z,4.12
2018-04-01T10:25:54.728Z,4.97
2018-04-01T10:31:45.447Z,3.74
2018-04-01T10:37:36.170Z,5.71
2018-04-01T10:43:26.962Z,3.05
2018-04-01T10:49:17.595Z,2.18
2018-04-01T10:55:08.324Z,2.46
2018-04-01T11:00:59.037Z,2.34
2018-04-01T11:06:49.742Z,2.23
2018-04-01T11:12:40.489Z,2.24
2018-04-01T11:18:31.201Z,2.06
2018-04-01T11:24:21.928Z,2.31
2018-04-01T11:30:12.623Z,1.45
2018-04-01T11:36:03.386Z,3.26
2018-04-01T11:41:54.152Z,2.88
2018-04-01T11:47:44.814Z,2.39
2018-04-01T11:53:35.590Z,2
2018-04-01T11:59:26.276Z,2.2
2018-04-01T12:05:16.958Z,2.27
2018-04-01T12:11:07.804Z,2.61
2018-04-01T12:16:58.499Z,3.16
2018-04-01T12:22:49.175Z,3.15
2018-04-01T12:28:39.890Z,2.21
2018-04-01T12:34:30.661Z,2.75
2018-04-01T12:40:21.369Z,2.91
2018-04-01T12:46:12.095Z,2.28
2018-04-01T12:52:02.822Z,2.29
2018-04-01T12:57:53.534Z,3.48
2018-04-01T13:03:44.232Z,2.32
2018-04-01T13:09:35.005Z,2.58
2018-04-01T13:15:25.707Z,2.85
2018-04-01T13:21:16.479Z,1.6
2018-04-01T13:27:07.187Z,2.27
2018-04-01T13:32:57.879Z,2.39
2018-04-01T13:38:48.597Z,2.9
2018-04-01T13:44:39.340Z,2.14
2018-04-01T13:50:30.094Z,2.03
2018-04-01T13:56:20.761Z,1.61
2018-04-01T14:02:11.518Z,2.34
2018-04-01T14:08:02.219Z,1.83
2018-04-01T14:13:52.965Z,1.97
2018-04-01T14:19:43.746Z,1.54
2018-04-01T14:25:34.421Z,1.76
2018-04-01T14:31:25.169Z,2.09
2018-04-01T14:37:15.991Z,1.62
2018-04-01T14:43:06.662Z,2
2018-04-01T14:48:57.407Z,1.65
2018-04-01T14:54:48.098Z,1.62
2018-04-01T15:00:38.863Z,1.84
2018-04-01T15:06:29.652Z,1.64
2018-04-01T15:12:20.377Z,2.59
2018-04-01T15:18:11.146Z,2.25
2018-04-01T15:24:01.863Z,2.5
2018-04-01T15:29:52.623Z,2.67
2018-04-01T15:35:43.344Z,3.86
2018-04-01T15:41:34.121Z,2.85
2018-04-01T15:47:24.806Z,2.25
2018-04-01T15:53:15.550Z,2.31
2018-04-01T15:59:06.288Z,2.29
2018-04-01T16:04:57.016Z,2.28
2018-04-01T16:10:47.776Z,2.88
2018-04-01T16:16:38.540Z,2.62
2018-04-01T16:22:29.274Z,2.76
2018-04-01T16:28:19.952Z,2.73
2018-04-01T16:34:10.680Z,3.65
2018-04-01T16:40:01.403Z,3.38
2018-04-01T16:45:52.177Z,3.42
2018-04-01T16:51:42.844Z,2.81
2018-04-01T16:57:33.580Z,3.59
2018-04-01T17:03:24.296Z,3.07
2018-04-01T17:09:15.028Z,2.91
2018-04-01T17:15:05.747Z,9.85
2018-04-01T17:20:56.514Z,2.81
2018-04-01T17:26:47.165Z,4.52
2018-04-01T17:32:37.923Z,12.96
2018-04-01T17:38:28.631Z,2.81
2018-04-01T17:44:19.364Z,4.02
2018-04-01T17:50:10.033Z,3.42
2018-04-01T17:56:00.805Z,2.87
2018-04-01T18:01:51.487Z,3.76
2018-04-01T18:07:42.220Z,3.01
2018-04-01T18:13:33.003Z,3.9
2018-04-01T18:19:23.675Z,3.24
2018-04-01T18:25:14.345Z,3.62
2018-04-01T18:31:05.121Z,3.96
2018-04-01T18:36:55.820Z,3.39
2018-04-01T18:42:46.524Z,7.34
2018-04-01T18:48:37.251Z,3.09
2018-04-01T18:54:27.993Z,3.09
2018-04-01T19:00:18.720Z,2.43
2018-04-01T19:06:09.355Z,3.45
2018-04-01T19:12:00.054Z,3.57
2018-04-01T19:17:50.845Z,3.36
2018-04-01T19:23:41.498Z,3.66
2018-04-01T19:29:32.191Z,3.53
2018-04-01T19:35:22.938Z,3.01
2018-04-01T19:41:13.642Z,3.97
2018-04-01T19:47:04.325Z,3.24
2018-04-01T19:52:55.060Z,3.22
2018-04-01T19:58:45.812Z,3.6
2018-04-01T20:04:36.487Z,4.03
2018-04-01T20:10:27.194Z,3.26
2018-04-01T20:16:17.898Z,3.05
2018-04-01T20:22:08.622Z,3.91
2018-04-01T20:27:59.273Z,4.09
2018-04-01T20:33:50.031Z,3.08
2018-04-01T20:39:40.779Z,4.04
2018-04-01T20:45:31.408Z,4.29
2018-04-01T20:51:22.145Z,3.81
2018-04-01T20:57:12.889Z,4.7
2018-04-01T21:03:03.523Z,3.43
2018-04-01T21:08:54.258Z,3.21
2018-04-01T21:14:44.991Z,4.28
2018-04-01T21:20:35.733Z,3.38
2018-04-01T21:26:26.392Z,4.77
2018-04-01T21:32:17.132Z,4.09
2018-04-01T21:38:07.891Z,3.95
2018-04-01T21:43:58.500Z,3.83
2018-04-01T21:49:49.278Z,5.54
2018-04-01T21:55:39.958Z,4.54
2018-04-01T22:01:30.662Z,5.34
2018-04-01T22:07:21.344Z,4.52
2018-04-01T22:13:12.071Z,4.93
2018-04-01T22:19:02.808Z,4.91
2018-04-01T22:24:53.515Z,4.74
2018-04-01T22:30:44.164Z,4.64
2018-04-01T22:36:34.878Z,5.56
2018-04-01T22:42:25.623Z,5.04
2018-04-01T22:48:16.329Z,5.65
2018-04-01T22:54:07.058Z,4.49
2018-04-01T22:59:57.687Z,4.73
2018-04-01T23:05:48.425Z,4.21
2018-04-01T23:11:39.160Z,4.25
2018-04-01T23:17:29.853Z,3.75
2018-04-01T23:23:20.534Z,4.95
2018-04-01T23:29:11.256Z,4.59
2018-04-01T23:35:01.960Z,4.24
2018-04-01T23:40:52.661Z,4.5
2018-04-01T23:46:43.343Z,4.32
2018-04-01T23:52:34.076Z,4.76
2018-04-01T23:58:24.804Z,4.76
